Time;durP1;ratioP1;P1;durP2;ratioP2;P2;SDS_P1;SDS_P2;PMS_P1;PMS_P2;Temp;Humidity;BMP_temperature;BMP_pressure;BME280_temperature;BME280_humidity;BME280_pressure;Samples;Min_cycle;Max_cycle;Signal;HPM_P1;HPM_P2
2022/12/28 00:02:21;;;;;;;7.93;3.22;;;5.80;99.90;;;;;;4906430;29;20672;-84
2022/12/28 00:04:46;;;;;;;7.47;2.97;;;5.70;99.90;;;;;;4909647;29;20047;-81
2022/12/28 00:07:12;;;;;;;7.15;3.03;;;5.70;99.90;;;;;;4908846;29;20056;-82
2022/12/28 00:09:37;;;;;;;18.95;4.80;;;5.70;99.90;;;;;;4926760;29;20059;-83
2022/12/28 00:12:03;;;;;;;12.68;3.45;;;5.70;99.90;;;;;;4906705;29;20040;-83
2022/12/28 00:14:29;;;;;;;9.38;3.25;;;5.70;99.90;;;;;;4929799;29;20123;-83
2022/12/28 00:16:55;;;;;;;11.60;4.65;;;5.70;99.90;;;;;;4907144;29;20036;-83
2022/12/28 00:19:21;;;;;;;9.88;3.25;;;5.70;99.90;;;;;;4905519;29;20075;-81
2022/12/28 00:21:47;;;;;;;10.30;3.40;;;5.70;99.90;;;;;;4911932;29;20130;-83
2022/12/28 00:24:23;;;;;;;10.00;3.45;;;5.70;99.90;;;;;;4928183;29;20114;-83
2022/12/28 00:26:48;;;;;;;;;;;5.70;99.90;;;;;;4929148;29;20423;-81
2022/12/28 00:29:14;;;;;;;7.78;3.65;;;5.70;99.90;;;;;;4907336;29;19933;-83
2022/12/28 00:31:43;;;;;;;7.45;4.10;;;5.70;99.90;;;;;;4923025;29;20041;-83
2022/12/28 00:34:09;;;;;;;7.45;3.50;;;5.70;99.90;;;;;;4922513;29;20809;-83
2022/12/28 00:36:34;;;;;;;8.05;3.50;;;5.70;99.90;;;;;;4918097;29;20067;-83
2022/12/28 00:39:00;;;;;;;9.18;3.90;;;5.70;99.90;;;;;;4924315;29;20065;-83
2022/12/28 00:41:25;;;;;;;9.55;4.10;;;5.70;99.90;;;;;;4922441;29;20049;-83
2022/12/28 00:43:51;;;;;;;7.70;4.05;;;5.70;99.90;;;;;;4921974;29;20071;-82
2022/12/28 00:46:17;;;;;;;9.88;4.00;;;5.70;99.90;;;;;;4912795;29;20502;-82
2022/12/28 00:48:43;;;;;;;12.55;4.38;;;5.70;99.90;;;;;;4921890;29;20046;-84
2022/12/28 00:51:14;;;;;;;9.80;4.05;;;5.70;99.90;;;;;;4927811;29;20051;-83
2022/12/28 00:53:40;;;;;;;7.60;4.28;;;5.70;99.90;;;;;;4909973;29;20054;-84
2022/12/28 00:56:09;;;;;;;11.48;4.22;;;5.70;99.90;;;;;;4924249;29;20398;-83
2022/12/28 00:58:35;;;;;;;11.95;4.60;;;5.60;99.90;;;;;;4906797;29;20043;-83
2022/12/28 01:01:00;;;;;;;9.60;4.50;;;5.60;99.90;;;;;;4940937;28;20044;-83
2022/12/28 01:03:26;;;;;;;9.77;4.32;;;5.70;99.90;;;;;;4921247;29;20079;-83
2022/12/28 01:05:52;;;;;;;9.40;3.85;;;5.70;99.90;;;;;;4924798;29;20051;-83
2022/12/28 01:08:17;;;;;;;8.75;3.78;;;5.60;99.90;;;;;;4906719;29;20035;-83
2022/12/28 01:10:43;;;;;;;7.80;3.63;;;5.70;99.90;;;;;;4907054;29;20052;-84
2022/12/28 01:13:08;;;;;;;9.35;4.13;;;5.70;99.90;;;;;;4926342;29;20036;-83
2022/12/28 01:15:34;;;;;;;10.32;3.55;;;5.70;99.90;;;;;;4918252;29;20043;-82
2022/12/28 01:18:00;;;;;;;9.18;3.58;;;5.70;99.90;;;;;;4910217;29;20032;-83
2022/12/28 01:20:25;;;;;;;10.60;3.63;;;5.70;99.90;;;;;;4907703;29;20095;-84
2022/12/28 01:22:51;;;;;;;7.80;4.03;;;5.70;99.90;;;;;;4911205;29;20047;-83
2022/12/28 01:25:16;;;;;;;7.43;3.65;;;5.80;99.90;;;;;;4926348;29;20050;-82
2022/12/28 01:27:42;;;;;;;8.70;4.28;;;5.80;99.90;;;;;;4908506;29;20052;-84
2022/12/28 01:30:09;;;;;;;10.55;4.28;;;5.80;99.90;;;;;;4926806;29;20122;-83
2022/12/28 01:32:35;;;;;;;9.10;4.30;;;5.80;99.90;;;;;;4926527;29;20048;-83
2022/12/28 01:35:00;;;;;;;7.65;3.58;;;5.80;99.90;;;;;;4926045;29;20051;-82
2022/12/28 01:37:26;;;;;;;12.55;4.53;;;5.80;99.90;;;;;;4914090;29;20038;-83
2022/12/28 01:39:51;;;;;;;7.60;3.60;;;5.80;99.90;;;;;;4925042;29;20049;-83
2022/12/28 01:42:18;;;;;;;10.90;4.30;;;5.80;99.90;;;;;;4910321;29;20043;-82
2022/12/28 01:44:46;;;;;;;11.90;4.65;;;5.80;99.90;;;;;;4925538;29;20043;-83
2022/12/28 01:47:16;;;;;;;10.52;4.43;;;5.80;99.90;;;;;;4913907;29;20498;-84
2022/12/28 01:50:06;;;;;;;7.47;3.70;;;5.80;99.90;;;;;;4927971;29;20051;-83
2022/12/28 01:52:43;;;;;;;6.03;4.40;;;5.90;99.90;;;;;;4913248;29;20032;-84
2022/12/28 01:55:15;;;;;;;7.03;4.07;;;5.90;99.90;;;;;;4904364;29;20039;-83
2022/12/28 01:57:46;;;;;;;8.30;4.40;;;5.90;99.90;;;;;;4907669;29;20062;-83
2022/12/28 02:00:14;;;;;;;8.88;4.03;;;5.90;99.90;;;;;;4926190;29;20047;-83
2022/12/28 02:02:47;;;;;;;8.80;4.57;;;5.90;99.90;;;;;;4929037;29;20130;-82
2022/12/28 02:05:13;;;;;;;8.60;4.22;;;5.90;99.90;;;;;;4924411;29;20040;-83
2022/12/28 02:07:48;;;;;;;13.07;4.75;;;5.90;99.90;;;;;;4908461;29;20402;-84
2022/12/28 02:10:15;;;;;;;8.55;4.55;;;5.90;99.90;;;;;;4925501;29;20039;-83
2022/12/28 02:12:41;;;;;;;10.48;4.53;;;6.10;99.90;;;;;;4910372;29;20481;-84
2022/12/28 02:15:07;;;;;;;9.88;4.38;;;6.00;99.90;;;;;;4925995;29;20040;-85
2022/12/28 02:17:33;;;;;;;10.27;4.63;;;5.90;99.90;;;;;;4923851;29;20130;-84
2022/12/28 02:19:59;;;;;;;15.63;5.13;;;6.00;99.90;;;;;;4915035;29;20126;-83
2022/12/28 02:22:53;;;;;;;10.05;5.57;;;6.00;99.90;;;;;;4912774;29;20127;-83
2022/12/28 02:25:33;;;;;;;11.93;5.07;;;6.00;99.90;;;;;;4928637;29;20059;-84
2022/12/28 02:28:36;;;;;;;9.18;5.35;;;6.00;99.90;;;;;;4911529;29;20411;-84
2022/12/28 02:31:08;;;;;;;9.02;4.85;;;6.00;99.90;;;;;;4930147;29;20040;-84
2022/12/28 02:33:43;;;;;;;10.13;4.88;;;5.30;99.90;;;;;;4924043;29;20067;-84
2022/12/28 02:36:18;;;;;;;7.65;5.15;;;6.00;99.90;;;;;;4923264;29;21246;-84
2022/12/28 02:38:54;;;;;;;8.68;6.05;;;6.00;99.90;;;;;;4911745;29;20072;-82
2022/12/28 02:41:23;;;;;;;9.45;5.47;;;6.00;99.90;;;;;;4912145;29;20043;-83
2022/12/28 02:43:49;;;;;;;9.68;5.68;;;5.90;99.90;;;;;;4923888;29;20382;-84
2022/12/28 02:52:40;;;;;;;9.13;6.65;;;6.00;99.90;;;;;;4926148;29;20454;-82
2022/12/28 02:58:56;;;;;;;9.43;7.05;;;6.00;99.90;;;;;;4924320;29;20099;-84
2022/12/28 03:01:27;;;;;;;9.23;5.72;;;6.10;99.90;;;;;;4923681;29;20051;-84
2022/12/28 03:04:05;;;;;;;8.85;6.07;;;6.10;99.90;;;;;;4924894;29;20475;-83
2022/12/28 03:10:01;;;;;;;11.00;5.82;;;6.20;99.90;;;;;;4924212;29;20070;-83
2022/12/28 03:12:39;;;;;;;10.80;5.93;;;6.20;99.90;;;;;;4912972;29;20574;-83
2022/12/28 03:15:28;;;;;;;10.25;6.15;;;6.20;99.90;;;;;;4909643;29;20051;-83
2022/12/28 03:31:55;;;;;;;13.05;6.60;;;6.40;99.90;;;;;;4923471;29;20044;-81
2022/12/28 03:34:22;;;;;;;9.65;6.57;;;6.40;99.90;;;;;;4923599;28;20031;-83
2022/12/28 03:37:01;;;;;;;10.52;6.80;;;6.50;99.90;;;;;;4924349;29;20032;-81
2022/12/28 03:39:48;;;;;;;10.45;5.97;;;6.50;99.90;;;;;;4925083;29;20036;-83
2022/12/28 03:45:35;;;;;;;6.88;5.60;;;6.50;99.90;;;;;;4923447;29;20080;-83
2022/12/28 03:48:03;;;;;;;6.63;5.40;;;6.50;99.90;;;;;;4904938;29;20040;-83
2022/12/28 03:50:29;;;;;;;5.97;5.38;;;6.50;99.90;;;;;;4915428;29;20047;-84
2022/12/28 03:52:57;;;;;;;12.20;6.38;;;6.50;99.90;;;;;;4915465;29;20086;-84
2022/12/28 03:55:24;;;;;;;8.45;6.03;;;6.60;99.90;;;;;;4924193;29;20037;-84
2022/12/28 03:57:49;;;;;;;7.97;5.40;;;6.60;99.90;;;;;;4907560;29;20043;-83
2022/12/28 04:00:15;;;;;;;6.82;5.47;;;6.70;99.90;;;;;;4927193;29;20031;-84
2022/12/28 04:02:41;;;;;;;9.70;5.05;;;6.60;99.90;;;;;;4914401;29;20627;-83
2022/12/28 04:05:07;;;;;;;5.93;5.03;;;6.70;99.90;;;;;;4921878;29;20822;-83
2022/12/28 04:07:32;;;;;;;7.72;4.97;;;6.70;99.90;;;;;;4911120;29;20039;-83
2022/12/28 04:09:58;;;;;;;5.90;5.00;;;6.70;99.90;;;;;;4907317;29;20498;-83
2022/12/28 04:12:23;;;;;;;8.55;5.43;;;6.70;99.90;;;;;;4925347;29;20428;-82
2022/12/28 04:14:49;;;;;;;6.97;4.53;;;6.70;99.90;;;;;;4922656;29;20150;-82
2022/12/28 04:17:14;;;;;;;7.90;4.93;;;6.70;99.90;;;;;;4905948;29;20039;-84
2022/12/28 04:19:40;;;;;;;7.55;4.80;;;6.70;99.90;;;;;;4924558;29;20083;-83
2022/12/28 04:22:05;;;;;;;10.00;4.95;;;6.70;99.90;;;;;;4925916;29;20048;-83
2022/12/28 04:24:31;;;;;;;5.55;5.00;;;6.80;99.90;;;;;;4914265;29;20106;-83
2022/12/28 04:26:56;;;;;;;8.13;5.28;;;6.80;99.90;;;;;;4906961;29;20078;-82
2022/12/28 04:29:22;;;;;;;6.10;5.40;;;6.80;99.90;;;;;;4926251;29;20043;-84
2022/12/28 04:31:48;;;;;;;6.78;5.25;;;6.90;99.90;;;;;;4921589;29;20044;-84
2022/12/28 04:34:14;;;;;;;5.30;4.78;;;6.80;99.90;;;;;;4906268;29;20483;-83
2022/12/28 04:36:41;;;;;;;7.03;5.70;;;6.80;99.90;;;;;;4906011;29;20805;-84
2022/12/28 04:39:07;;;;;;;5.80;5.20;;;6.90;99.90;;;;;;4904242;29;20130;-84
2022/12/28 04:41:33;;;;;;;7.00;5.22;;;6.90;99.90;;;;;;4922619;29;20122;-84
2022/12/28 04:43:58;;;;;;;6.30;5.70;;;6.90;99.90;;;;;;4905585;29;20055;-83
2022/12/28 04:46:24;;;;;;;6.13;5.53;;;6.90;99.90;;;;;;4904681;29;20108;-83
2022/12/28 04:48:50;;;;;;;6.07;4.88;;;7.00;99.90;;;;;;4909982;29;20035;-84
2022/12/28 04:51:18;;;;;;;5.90;5.30;;;7.00;99.90;;;;;;4913198;29;20741;-84
2022/12/28 04:53:44;;;;;;;7.15;5.63;;;7.00;99.90;;;;;;4920937;29;20039;-83
2022/12/28 04:56:11;;;;;;;6.00;5.45;;;7.10;99.90;;;;;;4942392;28;20551;-84
2022/12/28 04:58:37;;;;;;;6.47;5.82;;;7.10;99.90;;;;;;4922849;29;20052;-83
2022/12/28 05:01:09;;;;;;;6.57;5.20;;;7.10;99.90;;;;;;4922179;29;20035;-83
2022/12/28 05:03:35;;;;;;;7.38;6.60;;;7.10;99.90;;;;;;4910270;29;20118;-83
2022/12/28 05:06:06;;;;;;;7.22;6.53;;;7.20;99.90;;;;;;4911163;29;20066;-84
2022/12/28 05:08:33;;;;;;;6.97;6.20;;;7.20;99.90;;;;;;4918902;29;20048;-84
2022/12/28 05:11:00;;;;;;;7.18;6.15;;;7.20;99.90;;;;;;4924691;29;20055;-83
2022/12/28 05:13:26;;;;;;;6.90;6.07;;;7.30;99.90;;;;;;4907986;29;20044;-84
2022/12/28 05:15:52;;;;;;;6.75;6.15;;;7.30;99.90;;;;;;4921754;29;20036;-84
2022/12/28 05:18:17;;;;;;;7.85;6.78;;;7.30;99.90;;;;;;4923028;29;20124;-83
2022/12/28 05:20:43;;;;;;;8.32;7.47;;;7.40;99.90;;;;;;4905515;29;20095;-84
2022/12/28 05:23:08;;;;;;;7.80;6.35;;;7.30;99.90;;;;;;4923928;29;20043;-83
2022/12/28 05:25:34;;;;;;;8.55;7.78;;;7.40;99.90;;;;;;4923522;29;20039;-84
2022/12/28 05:27:59;;;;;;;8.18;7.38;;;7.40;99.90;;;;;;4912050;29;20118;-83
2022/12/28 05:30:25;;;;;;;8.95;8.05;;;7.50;99.90;;;;;;4923590;29;20134;-83
2022/12/28 05:32:51;;;;;;;8.25;7.47;;;7.50;99.90;;;;;;4926175;29;20133;-83
2022/12/28 05:35:16;;;;;;;8.95;8.15;;;7.50;99.90;;;;;;4906907;29;20490;-83
2022/12/28 05:37:42;;;;;;;8.05;7.03;;;7.50;99.90;;;;;;4927680;29;20094;-82
2022/12/28 05:40:08;;;;;;;8.52;7.75;;;7.60;99.90;;;;;;4905419;29;20451;-83
2022/12/28 05:42:35;;;;;;;9.02;8.23;;;7.50;99.90;;;;;;4921738;29;20052;-84
2022/12/28 05:45:00;;;;;;;8.70;7.97;;;7.50;99.90;;;;;;4923925;29;20052;-83
2022/12/28 05:47:26;;;;;;;9.63;8.73;;;7.60;99.90;;;;;;4924741;29;20057;-82
2022/12/28 05:49:52;;;;;;;9.75;8.80;;;7.60;99.90;;;;;;4906844;29;20036;-82
2022/12/28 05:52:17;;;;;;;9.80;8.82;;;7.70;99.90;;;;;;4923860;29;20071;-83
2022/12/28 05:54:43;;;;;;;9.55;8.70;;;7.60;99.90;;;;;;4927023;29;20123;-84
2022/12/28 05:57:09;;;;;;;8.07;7.40;;;7.70;99.90;;;;;;4910132;29;20079;-84
2022/12/28 05:59:34;;;;;;;10.15;9.15;;;7.80;99.90;;;;;;4911480;29;20815;-83
2022/12/28 06:02:00;;;;;;;10.13;9.25;;;7.80;99.90;;;;;;4931031;29;20086;-83
2022/12/28 06:04:25;;;;;;;10.13;8.60;;;7.80;99.90;;;;;;4914648;29;20043;-82
2022/12/28 06:06:53;;;;;;;11.82;9.27;;;7.90;99.90;;;;;;4914556;29;20047;-84
2022/12/28 06:09:19;;;;;;;9.10;8.30;;;7.80;99.90;;;;;;4914562;29;20066;-84
2022/12/28 06:11:45;;;;;;;10.30;9.07;;;7.90;99.90;;;;;;4937830;28;20060;-83
2022/12/28 06:14:10;;;;;;;9.43;8.52;;;7.90;99.90;;;;;;4926666;29;20074;-83
2022/12/28 06:16:39;;;;;;;9.85;8.57;;;7.90;99.90;;;;;;4909847;29;20047;-83
2022/12/28 06:19:07;;;;;;;9.52;8.52;;;7.90;99.90;;;;;;4916121;29;20036;-83
2022/12/28 06:21:35;;;;;;;9.70;8.75;;;7.90;99.90;;;;;;4923578;29;20040;-83
2022/12/28 06:24:02;;;;;;;11.10;9.27;;;8.00;99.90;;;;;;4916337;29;20071;-83
2022/12/28 06:26:30;;;;;;;9.82;8.90;;;8.00;99.90;;;;;;4925383;29;20471;-83
2022/12/28 06:28:56;;;;;;;10.20;9.02;;;8.00;99.90;;;;;;4908810;29;20040;-82
2022/12/28 06:31:25;;;;;;;9.18;8.27;;;8.00;99.90;;;;;;4912075;29;20123;-81
2022/12/28 06:33:55;;;;;;;8.73;7.93;;;8.10;99.90;;;;;;4911837;29;20068;-83
2022/12/28 06:36:27;;;;;;;9.80;8.88;;;8.00;99.90;;;;;;4927061;29;20051;-83
2022/12/28 06:38:54;;;;;;;8.98;8.18;;;8.10;99.90;;;;;;4922220;29;20039;-83
2022/12/28 06:41:20;;;;;;;8.05;7.45;;;8.10;99.90;;;;;;4924923;29;20071;-82
2022/12/28 06:43:48;;;;;;;8.45;7.65;;;8.10;99.90;;;;;;4914567;29;20054;-82
2022/12/28 06:46:15;;;;;;;8.07;7.40;;;8.10;99.90;;;;;;4922935;29;20051;-82
2022/12/28 06:48:41;;;;;;;8.32;7.05;;;8.10;99.90;;;;;;4907128;29;20094;-83
2022/12/28 06:51:14;;;;;;;8.65;7.85;;;8.10;99.90;;;;;;4907682;29;20040;-83
2022/12/28 06:53:40;;;;;;;8.10;7.43;;;8.10;99.90;;;;;;4912939;29;20040;-83
2022/12/28 06:56:10;;;;;;;9.00;8.02;;;8.10;99.90;;;;;;4927947;29;20036;-83
2022/12/28 06:58:35;;;;;;;8.48;7.68;;;8.10;99.90;;;;;;4925969;29;20039;-83
2022/12/28 07:01:06;;;;;;;8.52;7.78;;;8.20;99.90;;;;;;4907731;29;20055;-83
2022/12/28 07:03:32;;;;;;;8.80;8.10;;;8.20;99.90;;;;;;4927920;29;20053;-83
2022/12/28 07:06:02;;;;;;;8.80;7.90;;;8.10;99.90;;;;;;4910940;29;20039;-83
2022/12/28 07:08:29;;;;;;;9.50;8.70;;;8.20;99.90;;;;;;4912061;29;20052;-83
2022/12/28 07:11:00;;;;;;;9.85;8.95;;;8.20;99.90;;;;;;4911847;29;20047;-84
2022/12/28 07:13:25;;;;;;;10.15;9.32;;;8.20;99.90;;;;;;4921650;29;20056;-83
2022/12/28 07:15:51;;;;;;;8.93;8.02;;;8.20;99.90;;;;;;4907782;29;20513;-84
2022/12/28 07:18:16;;;;;;;10.60;9.40;;;8.20;99.90;;;;;;4927395;29;20493;-83
2022/12/28 07:20:42;;;;;;;9.82;8.93;;;8.30;99.90;;;;;;4922973;29;20507;-84
2022/12/28 07:23:07;;;;;;;9.35;8.35;;;8.30;99.90;;;;;;4907009;29;20032;-82
2022/12/28 07:25:34;;;;;;;12.05;9.25;;;8.30;99.90;;;;;;4906482;29;20032;-83
2022/12/28 07:27:59;;;;;;;9.60;8.70;;;8.40;99.90;;;;;;4926067;29;20062;-83
2022/12/28 07:30:27;;;;;;;9.57;8.68;;;8.30;99.90;;;;;;4926937;29;20047;-86
2022/12/28 07:32:58;;;;;;;9.95;8.95;;;8.40;99.90;;;;;;4916622;29;20118;-87
2022/12/28 07:35:23;;;;;;;8.98;8.23;;;8.40;99.90;;;;;;4917802;29;20074;-86
2022/12/28 07:37:49;;;;;;;9.60;8.60;;;8.40;99.90;;;;;;4934174;28;20497;-86
2022/12/28 07:40:14;;;;;;;9.25;8.45;;;8.40;99.90;;;;;;4944666;28;20046;-85
2022/12/28 07:42:40;;;;;;;9.18;8.27;;;8.50;99.90;;;;;;4929766;29;20032;-85
2022/12/28 07:45:09;;;;;;;11.07;9.45;;;8.50;99.90;;;;;;4924633;28;20047;-84
2022/12/28 07:47:35;;;;;;;9.52;8.73;;;8.50;99.90;;;;;;4947211;28;20703;-83
2022/12/28 07:50:02;;;;;;;11.68;10.45;;;8.50;99.90;;;;;;4944490;28;20058;-81
2022/12/28 07:52:27;;;;;;;9.82;8.73;;;8.50;99.90;;;;;;4940107;28;20546;-82
2022/12/28 07:54:53;;;;;;;10.70;9.70;;;8.50;99.90;;;;;;4939149;28;20045;-83
2022/12/28 07:57:26;;;;;;;10.98;9.98;;;8.50;99.90;;;;;;4920058;28;20031;-85
2022/12/28 07:59:52;;;;;;;11.02;10.02;;;8.50;99.90;;;;;;4943323;28;20474;-82
2022/12/28 08:02:17;;;;;;;10.77;9.88;;;8.50;99.90;;;;;;4945499;28;20050;-83
2022/12/28 08:04:46;;;;;;;11.02;9.93;;;8.50;99.90;;;;;;4945071;28;20051;-89
2022/12/28 08:07:30;;;;;;;9.88;8.88;;;8.50;99.90;;;;;;4947851;28;21768;-86
2022/12/28 08:10:07;;;;;;;12.18;8.95;;;8.50;99.90;;;;;;4930043;28;20043;-88
2022/12/28 08:12:32;;;;;;;11.63;8.73;;;8.60;99.90;;;;;;4945596;28;20494;-83
2022/12/28 08:15:00;;;;;;;9.35;8.38;;;8.50;99.90;;;;;;4948080;28;20046;-85
2022/12/28 08:17:25;;;;;;;8.15;7.38;;;8.50;99.90;;;;;;4932799;28;20066;-85
2022/12/28 08:19:51;;;;;;;10.77;8.02;;;8.50;99.90;;;;;;4929055;29;20035;-84
2022/12/28 08:22:16;;;;;;;7.50;6.95;;;8.50;99.90;;;;;;4942296;28;20142;-83
2022/12/28 08:24:42;;;;;;;8.52;7.53;;;8.60;99.90;;;;;;4942451;29;20059;-83
2022/12/28 08:27:07;;;;;;;10.73;8.10;;;8.60;99.90;;;;;;4926495;29;20050;-82
2022/12/28 08:29:33;;;;;;;9.93;7.53;;;8.60;99.90;;;;;;4941861;28;20044;-82
2022/12/28 08:31:58;;;;;;;9.65;8.02;;;8.60;99.90;;;;;;4925405;29;20035;-82
2022/12/28 08:34:25;;;;;;;8.05;7.35;;;8.60;99.90;;;;;;4940672;29;20036;-83
2022/12/28 08:36:53;;;;;;;7.78;6.93;;;8.60;99.90;;;;;;4942421;29;20137;-83
2022/12/28 08:39:18;;;;;;;7.63;6.97;;;8.60;99.90;;;;;;4942752;28;20139;-83
2022/12/28 08:41:44;;;;;;;7.22;6.63;;;8.60;99.90;;;;;;4927663;28;20129;-83
2022/12/28 08:44:09;;;;;;;8.13;7.25;;;8.60;99.90;;;;;;4943359;28;20102;-83
2022/12/28 08:46:36;;;;;;;10.05;8.10;;;8.60;99.90;;;;;;4924731;29;20391;-83
2022/12/28 08:49:02;;;;;;;7.97;7.20;;;8.60;99.90;;;;;;4942154;29;20056;-82
2022/12/28 08:51:38;;;;;;;8.32;7.63;;;8.60;99.90;;;;;;4931917;29;20039;-83
2022/12/28 08:54:04;;;;;;;;;;;8.60;99.90;;;;;;4943667;29;20047;-83
2022/12/28 08:56:41;;;;;;;8.38;7.47;;;8.60;99.90;;;;;;4944120;28;19922;-82
2022/12/28 08:59:07;;;;;;;7.43;6.80;;;8.70;99.90;;;;;;4941184;28;20058;-83
2022/12/28 09:01:37;;;;;;;8.40;7.70;;;8.70;99.90;;;;;;4940861;29;20555;-84
2022/12/28 09:04:03;;;;;;;7.35;6.65;;;8.70;99.90;;;;;;4946580;28;20099;-83
2022/12/28 09:06:34;;;;;;;8.70;6.35;;;8.70;99.90;;;;;;4943198;29;20118;-83
2022/12/28 09:09:00;;;;;;;7.32;6.15;;;8.70;99.90;;;;;;4942320;28;20046;-83
2022/12/28 09:11:37;;;;;;;8.23;6.10;;;8.80;99.90;;;;;;4928041;29;20120;-88
2022/12/28 09:14:04;;;;;;;6.72;5.95;;;8.80;99.90;;;;;;4940572;28;20043;-83
2022/12/28 09:16:30;;;;;;;6.32;5.55;;;8.80;99.90;;;;;;4941133;28;20102;-84
2022/12/28 09:19:22;;;;;;;6.40;5.80;;;8.80;99.90;;;;;;4925503;29;20031;-90
2022/12/28 09:21:51;;;;;;;6.20;5.60;;;8.90;99.90;;;;;;4931528;29;20051;-83
2022/12/28 09:24:16;;;;;;;8.93;5.75;;;8.90;99.90;;;;;;4928072;28;20406;-83
2022/12/28 09:26:42;;;;;;;6.80;5.65;;;8.90;99.90;;;;;;4942203;28;20043;-83
2022/12/28 09:29:11;;;;;;;5.78;5.28;;;8.90;99.90;;;;;;4941571;28;20044;-85
2022/12/28 09:31:37;;;;;;;5.65;5.15;;;8.90;99.90;;;;;;4926078;29;20442;-83
2022/12/28 09:34:05;;;;;;;7.18;5.10;;;8.90;99.90;;;;;;4944955;28;20036;-82
2022/12/28 09:36:34;;;;;;;5.78;5.28;;;9.00;99.90;;;;;;4932794;29;20036;-83
2022/12/28 09:39:07;;;;;;;7.22;5.38;;;8.90;99.90;;;;;;4951082;28;20046;-84
2022/12/28 09:41:57;;;;;;;5.85;5.32;;;8.90;99.90;;;;;;4939293;28;20043;-84
2022/12/28 09:44:38;;;;;;;7.70;5.38;;;8.90;99.90;;;;;;4943767;28;20043;-82
2022/12/28 09:47:11;;;;;;;6.85;5.35;;;8.90;99.90;;;;;;4948695;28;20500;-83
2022/12/28 09:50:20;;;;;;;6.57;5.97;;;9.00;99.90;;;;;;4935856;28;20079;-85
2022/12/28 09:53:04;;;;;;;8.77;6.30;;;9.00;99.90;;;;;;4950385;28;20616;-83
2022/12/28 09:55:33;;;;;;;8.52;5.65;;;9.00;99.90;;;;;;4953877;28;20035;-84
2022/12/28 09:57:59;;;;;;;5.47;4.97;;;9.10;99.90;;;;;;4965234;28;20082;-83
2022/12/28 10:00:42;;;;;;;6.82;4.82;;;9.10;99.90;;;;;;4931745;28;20031;-83
2022/12/28 10:03:19;;;;;;;6.63;5.25;;;9.10;99.90;;;;;;4936214;28;20458;-84
2022/12/28 10:05:46;;;;;;;7.32;5.57;;;9.10;99.90;;;;;;4933691;28;20141;-84
2022/12/28 10:08:15;;;;;;;5.72;5.22;;;9.10;99.90;;;;;;4953807;28;20075;-84
2022/12/28 10:10:42;;;;;;;6.18;5.35;;;9.10;99.90;;;;;;4944601;28;20067;-82
2022/12/28 10:13:34;;;;;;;6.45;5.82;;;9.10;99.90;;;;;;4928241;28;20046;-84
2022/12/28 10:16:00;;;;;;;4.80;4.40;;;9.10;99.90;;;;;;4943728;28;20103;-84
2022/12/28 10:18:26;;;;;;;5.65;4.90;;;9.20;99.90;;;;;;4944836;28;20046;-85
2022/12/28 10:20:54;;;;;;;5.90;4.75;;;9.20;99.90;;;;;;4939621;28;20062;-84
2022/12/28 10:23:26;;;;;;;5.15;4.65;;;9.20;99.90;;;;;;4957441;28;20043;-83
2022/12/28 10:25:54;;;;;;;5.38;4.80;;;9.10;99.90;;;;;;4933198;28;20039;-84
2022/12/28 10:28:23;;;;;;;6.50;4.45;;;9.20;99.90;;;;;;4926264;28;20088;-83
2022/12/28 10:31:07;;;;;;;6.35;4.95;;;9.20;99.90;;;;;;4936771;29;20094;-85
2022/12/28 10:33:38;;;;;;;6.00;4.38;;;9.20;99.90;;;;;;4935113;28;20455;-83
2022/12/28 10:36:03;;;;;;;7.10;5.88;;;9.10;99.90;;;;;;4947542;28;20445;-85
2022/12/28 10:38:33;;;;;;;8.30;5.18;;;9.10;99.90;;;;;;4931511;28;20047;-83
2022/12/28 10:41:08;;;;;;;5.15;4.72;;;9.10;99.90;;;;;;4946321;28;20106;-85
2022/12/28 10:43:49;;;;;;;6.28;5.68;;;9.20;99.90;;;;;;4926108;28;20136;-84
2022/12/28 10:46:22;;;;;;;5.72;5.20;;;9.20;99.90;;;;;;4928328;29;20176;-84
2022/12/28 10:49:01;;;;;;;5.78;5.28;;;9.20;99.90;;;;;;4932985;28;20154;-88
2022/12/28 10:52:17;;;;;;;5.82;5.30;;;9.20;99.90;;;;;;4917437;28;20043;-85
2022/12/28 10:54:45;;;;;;;8.15;6.10;;;9.50;99.90;;;;;;4946212;28;20126;-85
2022/12/28 10:57:50;;;;;;;6.13;5.55;;;9.20;99.90;;;;;;4891137;29;20075;-84
2022/12/28 11:00:24;;;;;;;5.80;5.40;;;9.20;99.90;;;;;;4880599;29;20151;-87
2022/12/28 11:02:53;;;;;;;6.05;5.40;;;9.20;99.90;;;;;;4872753;29;20075;-88
2022/12/28 11:05:23;;;;;;;6.10;5.50;;;9.20;99.90;;;;;;4892849;29;20643;-85
2022/12/28 11:08:01;;;;;;;5.68;4.25;;;9.20;99.90;;;;;;4877525;29;20077;-86
2022/12/28 11:10:29;;;;;;;5.15;4.65;;;9.30;99.90;;;;;;4928852;28;21745;-83
2022/12/28 11:13:00;;;;;;;4.80;4.40;;;9.20;99.90;;;;;;4927816;29;20055;-82
2022/12/28 11:15:30;;;;;;;4.85;4.45;;;9.20;99.90;;;;;;4946215;28;20051;-81
2022/12/28 11:18:17;;;;;;;5.85;4.50;;;9.20;99.90;;;;;;4946195;28;20047;-84
2022/12/28 11:20:51;;;;;;;5.95;4.18;;;9.10;99.90;;;;;;4929147;29;20047;-84
2022/12/28 11:23:23;;;;;;;3.97;3.67;;;9.20;99.90;;;;;;4926696;28;20063;-86
2022/12/28 11:26:17;;;;;;;4.15;3.85;;;9.20;99.90;;;;;;4948303;28;20102;-86
2022/12/28 11:29:06;;;;;;;6.78;4.53;;;9.20;99.90;;;;;;4940500;28;20050;-86
2022/12/28 11:31:40;;;;;;;4.40;4.05;;;9.20;99.90;;;;;;4950321;28;20062;-89
2022/12/28 11:34:19;;;;;;;3.83;3.53;;;9.10;99.90;;;;;;4953062;28;20114;-86
2022/12/28 11:36:46;;;;;;;4.35;3.95;;;9.20;99.90;;;;;;4938103;29;20046;-85
2022/12/28 11:39:24;;;;;;;6.30;3.90;;;9.10;99.90;;;;;;4946651;28;20043;-87
2022/12/28 11:41:58;;;;;;;3.90;3.60;;;9.20;99.90;;;;;;4935488;29;20058;-87
2022/12/28 11:44:44;;;;;;;4.13;3.83;;;9.00;99.90;;;;;;4949055;28;20695;-86
2022/12/28 11:51:13;;;;;;;4.18;3.80;;;8.70;99.90;;;;;;4888435;29;20056;-86
2022/12/28 11:53:45;;;;;;;5.78;4.03;;;9.20;99.90;;;;;;4929808;28;20677;-88
2022/12/28 11:56:13;;;;;;;4.22;3.92;;;9.10;99.90;;;;;;4939230;28;20040;-87
2022/12/28 11:58:57;;;;;;;4.30;3.90;;;9.50;99.90;;;;;;4933237;29;20036;-86
2022/12/28 12:01:28;;;;;;;4.80;4.40;;;9.10;99.90;;;;;;4937586;28;20039;-86
2022/12/28 12:04:28;;;;;;;3.90;3.60;;;9.20;99.90;;;;;;4933532;29;20071;-86
2022/12/28 12:07:02;;;;;;;3.60;3.30;;;9.10;99.90;;;;;;4946253;28;20141;-85
2022/12/28 12:09:42;;;;;;;3.92;3.63;;;9.10;99.90;;;;;;4923864;29;20039;-86
2022/12/28 12:13:03;;;;;;;4.13;3.60;;;9.20;99.90;;;;;;4940096;29;20114;-86
2022/12/28 12:16:00;;;;;;;5.30;4.70;;;9.10;99.90;;;;;;4945079;28;20042;-86
2022/12/28 12:18:28;;;;;;;4.93;4.53;;;9.20;99.90;;;;;;4946678;28;20054;-85
2022/12/28 12:21:08;;;;;;;4.57;4.20;;;9.10;99.90;;;;;;4949540;28;20126;-86
2022/12/28 12:23:49;;;;;;;4.93;4.45;;;9.10;99.90;;;;;;4932512;28;20851;-85
2022/12/28 12:26:34;;;;;;;5.35;4.95;;;9.10;99.90;;;;;;4929305;29;20036;-87
2022/12/28 12:29:06;;;;;;;5.25;4.72;;;9.20;99.90;;;;;;4947963;28;20567;-83
2022/12/28 12:31:40;;;;;;;5.22;4.80;;;9.20;99.90;;;;;;4946791;28;20553;-83
2022/12/28 12:34:33;;;;;;;4.57;4.25;;;9.10;99.90;;;;;;4960762;28;20558;-82
2022/12/28 12:37:32;;;;;;;6.75;4.85;;;9.10;99.90;;;;;;4933217;28;20074;-82
2022/12/28 12:40:19;;;;;;;4.03;3.72;;;9.10;99.90;;;;;;4935560;29;20047;-83
2022/12/28 12:43:03;;;;;;;3.75;3.45;;;9.10;99.90;;;;;;4945347;28;20039;-88
2022/12/28 12:45:41;;;;;;;4.35;3.33;;;9.10;99.90;;;;;;4931505;29;20039;-85
2022/12/28 12:48:18;;;;;;;3.28;3.05;;;9.10;99.90;;;;;;4926645;28;20051;-83
2022/12/28 12:51:08;;;;;;;3.17;2.97;;;9.10;99.90;;;;;;4933809;29;20039;-82
2022/12/28 12:53:46;;;;;;;3.03;2.83;;;9.10;99.90;;;;;;4963198;28;20078;-86
2022/12/28 12:57:14;;;;;;;2.80;2.30;;;9.10;99.90;;;;;;4932238;28;20395;-82
2022/12/28 13:00:23;;;;;;;3.67;3.13;;;9.10;99.90;;;;;;4910365;29;20048;-86
2022/12/28 13:03:15;;;;;;;3.40;2.78;;;9.10;99.90;;;;;;4897096;29;20044;-87
2022/12/28 13:05:48;;;;;;;2.72;2.45;;;9.10;99.90;;;;;;4931682;28;20410;-83
2022/12/28 13:08:54;;;;;;;3.33;2.78;;;9.10;99.90;;;;;;4944599;28;20094;-83
2022/12/28 13:11:49;;;;;;;2.40;2.20;;;9.10;99.90;;;;;;4940245;28;20043;-84
2022/12/28 13:14:42;;;;;;;3.15;2.28;;;9.10;99.90;;;;;;4939003;28;20094;-85
2022/12/28 13:17:18;;;;;;;3.85;2.40;;;9.10;99.90;;;;;;4948666;28;20034;-84
2022/12/28 13:19:45;;;;;;;2.35;2.15;;;9.10;99.90;;;;;;4924881;29;20417;-87
2022/12/28 13:22:41;;;;;;;2.35;2.15;;;9.10;99.90;;;;;;4943656;28;20046;-89
2022/12/28 13:25:24;;;;;;;2.50;2.30;;;8.30;99.90;;;;;;4929049;28;20043;-87
2022/12/28 13:28:00;;;;;;;2.67;1.85;;;9.10;99.90;;;;;;4929523;28;20043;-88
2022/12/28 13:30:27;;;;;;;2.78;1.90;;;9.10;99.90;;;;;;4944829;28;20066;-84
2022/12/28 13:32:58;;;;;;;2.95;1.60;;;9.10;99.90;;;;;;4941989;28;20057;-85
2022/12/28 13:35:31;;;;;;;2.95;1.67;;;9.10;99.90;;;;;;4929023;28;20051;-84
2022/12/28 13:38:14;;;;;;;3.05;1.70;;;9.10;99.90;;;;;;4960849;28;20043;-83
2022/12/28 13:40:58;;;;;;;1.48;1.38;;;9.10;99.90;;;;;;4932992;28;20058;-84
2022/12/28 13:44:08;;;;;;;1.83;1.73;;;9.10;99.90;;;;;;4941660;28;20179;-85
2022/12/28 13:46:40;;;;;;;2.67;1.80;;;9.20;99.90;;;;;;4926723;29;20051;-85
2022/12/28 13:49:06;;;;;;;3.58;1.98;;;9.20;99.90;;;;;;4941534;29;20061;-83
2022/12/28 13:51:36;;;;;;;1.98;1.55;;;9.10;99.90;;;;;;4930544;29;20166;-86
2022/12/28 13:54:31;;;;;;;3.25;1.80;;;9.10;99.90;;;;;;4945881;28;20036;-88